Hampton Beach, New Hampshire
Current Conditions -  °F | °C
As of 11:58 PM on Sunday 21 Dec 2014 (Local Time) from KPSM Reporting Station
Overcast Overcast  
Wind Chill: 24°   Ceiling: 5500
Heat Index: 31°   Visibility: 10mi
Dew Point: 24°   Wind: 7mph
Humidity: 74%   Direction: 340°NNW
Pressure: 30.36"   Gusts: NA
Location:  42.9284°N, 70.8566°W
Report Text: KPSM 220458Z 34006KT 10SM OVC055 00/M05 A3036 RMK AO2A SLP286 T10051047 400121048
Loading
Personal Weather Stations






























Interactive Weather Map New forecast layout! Learn more

10-Day Weather Forecast

Advertisements
Track Severe Weather on mobile